Time;durP1;ratioP1;P1;durP2;ratioP2;P2;SDS_P1;SDS_P2;PMS_P1;PMS_P2;Temp;Humidity;BMP_temperature;BMP_pressure;BME280_temperature;BME280_humidity;BME280_pressure;Samples;Min_cycle;Max_cycle;Signal;HPM_P1;HPM_P2
2021/07/15 00:11:59;;;;;;;5.80;3.05;;;;;;;;;;6238819;23;20374;-96
2021/07/15 00:17:49;;;;;;;5.85;3.30;;;;;;;;;;6232676;23;20374;-96
2021/07/15 00:20:23;;;;;;;7.40;3.40;;;;;;;;;;6237327;23;20358;-95
2021/07/15 00:26:01;;;;;;;5.82;3.40;;;;;;;;;;6231640;23;20354;-96
2021/07/15 00:28:35;;;;;;;7.57;3.65;;;;;;;;;;6234575;23;20370;-96
2021/07/15 00:33:56;;;;;;;4.32;2.92;;;;;;;;;;6235997;23;20393;-96
2021/07/15 00:36:28;;;;;;;5.68;3.05;;;;;;;;;;6209679;23;20388;-96
2021/07/15 00:41:42;;;;;;;7.47;3.10;;;;;;;;;;6236211;23;20366;-96
2021/07/15 00:44:32;;;;;;;5.55;2.90;;;;;;;;;;6235649;23;20354;-96
2021/07/15 00:47:34;;;;;;;4.47;3.30;;;;;;;;;;6235681;23;20378;-96
2021/07/15 00:50:08;;;;;;;5.97;2.78;;;;;;;;;;6235742;23;20415;-96
2021/07/15 00:52:41;;;;;;;5.17;3.30;;;;;;;;;;6209460;23;20373;-96
2021/07/15 00:55:16;;;;;;;6.38;2.95;;;;;;;;;;6234981;23;20400;-96
2021/07/15 01:00:45;;;;;;;4.88;2.75;;;;;;;;;;6233998;23;20366;-96
2021/07/15 01:03:46;;;;;;;5.20;3.17;;;;;;;;;;6235611;23;20366;-96
2021/07/15 01:06:23;;;;;;;4.90;2.65;;;;;;;;;;6209246;23;20400;-96
2021/07/15 01:08:56;;;;;;;6.35;2.53;;;;;;;;;;6234557;23;20396;-96
2021/07/15 01:11:40;;;;;;;5.85;2.95;;;;;;;;;;6235688;23;20397;-96
2021/07/15 01:17:03;;;;;;;5.60;2.72;;;;;;;;;;6228305;23;20378;-96
2021/07/15 01:29:14;;;;;;;5.47;3.47;;;;;;;;;;6243237;23;20352;-95
2021/07/15 01:32:05;;;;;;;5.40;3.60;;;;;;;;;;6265569;23;20361;-95
2021/07/15 01:34:37;;;;;;;5.80;3.47;;;;;;;;;;6242950;23;20379;-95
2021/07/15 01:37:09;;;;;;;5.88;3.40;;;;;;;;;;6271028;22;20364;-96
2021/07/15 01:42:34;;;;;;;6.28;3.72;;;;;;;;;;6270111;22;20384;-96
2021/07/15 01:45:11;;;;;;;5.95;3.78;;;;;;;;;;6264454;23;20344;-96
2021/07/15 01:48:13;;;;;;;5.60;3.60;;;;;;;;;;6266006;23;20368;-96
2021/07/15 01:51:00;;;;;;;7.93;3.50;;;;;;;;;;6238330;23;20369;-96
2021/07/15 01:53:39;;;;;;;6.35;3.53;;;;;;;;;;6265152;23;20356;-96
2021/07/15 01:56:17;;;;;;;6.03;3.55;;;;;;;;;;6264410;23;20402;-96
2021/07/15 01:58:50;;;;;;;6.00;3.20;;;;;;;;;;6264642;23;20483;-96
2021/07/15 02:01:29;;;;;;;4.50;3.20;;;;;;;;;;6238255;23;20379;-96
2021/07/15 02:07:22;;;;;;;6.80;3.17;;;;;;;;;;6262155;23;20365;-96
2021/07/15 02:09:51;;;;;;;4.95;3.10;;;;;;;;;;6262618;23;20390;-96
2021/07/15 02:12:31;;;;;;;6.78;3.60;;;;;;;;;;6236837;23;20360;-95
2021/07/15 02:15:04;;;;;;;7.63;3.53;;;;;;;;;;6263479;23;20360;-96
2021/07/15 02:17:48;;;;;;;5.82;3.22;;;;;;;;;;6263812;23;20391;-96
2021/07/15 02:20:43;;;;;;;6.35;3.08;;;;;;;;;;6264019;23;20360;-96
2021/07/15 02:29:07;;;;;;;4.18;2.72;;;;;;;;;;6254364;23;20404;-96
2021/07/15 02:44:16;;;;;;;6.50;3.70;;;;;;;;;;6266715;23;20367;-96
2021/07/15 02:46:58;;;;;;;4.60;2.90;;;;;;;;;;6266914;23;20356;-96
2021/07/15 02:49:58;;;;;;;4.07;3.13;;;;;;;;;;6267478;23;20366;-96
2021/07/15 02:58:55;;;;;;;5.23;2.60;;;;;;;;;;6261005;23;20357;-96
2021/07/15 03:04:50;;;;;;;6.30;3.08;;;;;;;;;;6234019;23;20369;-96
2021/07/15 03:16:02;;;;;;;7.38;3.47;;;;;;;;;;6257877;23;20387;-96
2021/07/15 03:18:41;;;;;;;4.25;3.13;;;;;;;;;;6266423;23;20364;-96
2021/07/15 03:21:41;;;;;;;4.90;3.67;;;;;;;;;;6267128;23;20420;-96
2021/07/15 03:27:28;;;;;;;;;;;;;;;;;;;;;
2021/07/15 03:30:03;;;;;;;6.10;3.70;;;;;;;;;;6265376;23;20348;-96
2021/07/15 03:32:37;;;;;;;5.22;3.50;;;;;;;;;;6238865;23;20372;-96
2021/07/15 03:35:11;;;;;;;6.28;3.47;;;;;;;;;;6265273;23;20402;-96
2021/07/15 03:38:08;;;;;;;6.70;3.58;;;;;;;;;;6261850;23;20383;-96
2021/07/15 03:46:25;;;;;;;5.38;3.67;;;;;;;;;;6265765;23;20376;-96
2021/07/15 03:48:53;;;;;;;6.25;3.70;;;;;;;;;;6265356;23;20375;-96
2021/07/15 03:51:32;;;;;;;6.27;3.83;;;;;;;;;;6263400;23;20418;-96
2021/07/15 03:54:13;;;;;;;5.80;3.80;;;;;;;;;;6261952;23;20407;-96
2021/07/15 03:57:08;;;;;;;8.27;4.10;;;;;;;;;;6237630;23;20426;-96
2021/07/15 04:02:32;;;;;;;8.10;3.70;;;;;;;;;;6263678;23;20360;-96
2021/07/15 04:05:01;;;;;;;5.03;3.60;;;;;;;;;;6262972;23;20384;-96
2021/07/15 04:07:34;;;;;;;6.18;3.58;;;;;;;;;;6261765;23;20360;-96
2021/07/15 04:10:44;;;;;;;6.57;3.45;;;;;;;;;;6264918;23;20368;-96
2021/07/15 04:19:40;;;;;;;7.18;4.90;;;;;;;;;;6265443;23;20395;-96
2021/07/15 04:25:02;;;;;;;7.50;5.30;;;;;;;;;;6251878;23;20395;-96
2021/07/15 04:27:30;;;;;;;7.85;4.90;;;;;;;;;;6253957;23;20406;-96
2021/07/15 04:30:03;;;;;;;7.30;4.53;;;;;;;;;;6253706;23;20368;-96
2021/07/15 04:32:36;;;;;;;6.43;3.90;;;;;;;;;;6251833;23;20482;-96
2021/07/15 04:35:04;;;;;;;5.40;3.90;;;;;;;;;;6241459;23;20376;-93
2021/07/15 04:37:32;;;;;;;6.55;4.68;;;;;;;;;;6240854;23;20418;-93
2021/07/15 04:39:59;;;;;;;6.85;5.22;;;;;;;;;;6240698;23;20376;-94
2021/07/15 04:42:27;;;;;;;8.70;5.50;;;;;;;;;;6241047;23;20364;-94
2021/07/15 04:44:55;;;;;;;8.20;5.57;;;;;;;;;;6240657;23;20863;-94
2021/07/15 04:47:23;;;;;;;8.10;5.10;;;;;;;;;;6240670;23;20380;-94
2021/07/15 04:49:52;;;;;;;5.65;4.00;;;;;;;;;;6240723;23;20487;-94
2021/07/15 04:52:19;;;;;;;4.67;3.30;;;;;;;;;;6240814;23;20372;-94
2021/07/15 04:54:47;;;;;;;8.43;3.73;;;;;;;;;;6240403;23;20400;-94
2021/07/15 04:57:15;;;;;;;5.80;3.30;;;;;;;;;;6240773;23;20386;-94
2021/07/15 04:59:42;;;;;;;7.57;3.70;;;;;;;;;;6240385;23;20379;-93
2021/07/15 05:02:09;;;;;;;5.53;3.50;;;;;;;;;;6240552;23;20398;-93
2021/07/15 05:04:36;;;;;;;5.93;3.60;;;;;;;;;;6240872;23;21200;-93
2021/07/15 05:07:05;;;;;;;5.47;3.55;;;;;;;;;;6239676;23;20425;-93
2021/07/15 05:09:33;;;;;;;3.60;2.85;;;;;;;;;;6240853;23;20533;-93
2021/07/15 05:11:59;;;;;;;4.18;2.88;;;;;;;;;;6240315;23;20375;-93
2021/07/15 05:14:26;;;;;;;4.78;3.15;;;;;;;;;;6240324;23;20368;-94
2021/07/15 05:16:55;;;;;;;4.95;3.00;;;;;;;;;;6240208;23;20372;-94
2021/07/15 05:19:22;;;;;;;5.63;2.67;;;;;;;;;;6240707;23;20398;-93
2021/07/15 05:21:49;;;;;;;6.15;3.10;;;;;;;;;;6240319;23;20871;-93
2021/07/15 05:24:18;;;;;;;3.97;2.55;;;;;;;;;;6240900;23;20375;-93
2021/07/15 05:26:45;;;;;;;5.28;2.80;;;;;;;;;;6241133;23;20371;-93
2021/07/15 05:29:12;;;;;;;4.32;2.80;;;;;;;;;;6241164;23;20368;-93
2021/07/15 05:31:39;;;;;;;4.10;2.40;;;;;;;;;;6241185;23;20722;-93
2021/07/15 05:34:06;;;;;;;4.50;2.65;;;;;;;;;;6240089;23;20372;-93
2021/07/15 05:36:33;;;;;;;6.33;2.43;;;;;;;;;;6240727;23;20382;-94
2021/07/15 05:39:00;;;;;;;8.27;2.75;;;;;;;;;;6239959;23;20825;-94
2021/07/15 05:41:28;;;;;;;5.00;2.10;;;;;;;;;;6240514;23;20379;-94
2021/07/15 05:43:55;;;;;;;5.15;2.25;;;;;;;;;;6240506;23;20368;-93
2021/07/15 05:46:22;;;;;;;6.20;2.60;;;;;;;;;;6240714;23;20372;-93
2021/07/15 05:48:49;;;;;;;8.02;2.30;;;;;;;;;;6240071;23;20674;-94
2021/07/15 05:51:15;;;;;;;4.35;2.20;;;;;;;;;;6240327;23;20372;-93
2021/07/15 05:53:42;;;;;;;3.83;2.13;;;;;;;;;;6240120;23;20458;-93
2021/07/15 05:56:09;;;;;;;3.47;1.90;;;;;;;;;;6239939;23;20380;-93
2021/07/15 05:58:37;;;;;;;3.90;2.00;;;;;;;;;;6240209;23;20737;-93
2021/07/15 06:01:05;;;;;;;4.47;1.90;;;;;;;;;;6240141;23;20372;-93
2021/07/15 06:03:31;;;;;;;3.88;1.70;;;;;;;;;;6240117;23;20690;-94
2021/07/15 06:05:58;;;;;;;4.50;1.73;;;;;;;;;;6239874;23;20393;-94
2021/07/15 06:08:25;;;;;;;4.87;2.20;;;;;;;;;;6240256;23;20372;-93
2021/07/15 06:10:52;;;;;;;5.57;2.00;;;;;;;;;;6241052;22;20371;-88
2021/07/15 06:13:19;;;;;;;3.85;1.90;;;;;;;;;;6239537;23;20836;-89
2021/07/15 06:15:48;;;;;;;2.85;1.83;;;;;;;;;;6213136;23;20942;-88
2021/07/15 06:18:15;;;;;;;3.67;1.60;;;;;;;;;;6239271;23;20384;-88
2021/07/15 06:20:42;;;;;;;4.03;1.70;;;;;;;;;;6238947;23;20459;-87
2021/07/15 06:23:09;;;;;;;4.27;1.60;;;;;;;;;;6239069;23;20360;-88
2021/07/15 06:25:36;;;;;;;4.00;1.50;;;;;;;;;;6239681;23;20356;-89
2021/07/15 06:28:03;;;;;;;6.77;1.80;;;;;;;;;;6239011;23;20438;-89
2021/07/15 06:30:30;;;;;;;4.33;1.60;;;;;;;;;;6240012;23;20356;-88
2021/07/15 06:32:59;;;;;;;1.88;1.33;;;;;;;;;;6239528;23;20726;-89
2021/07/15 06:35:26;;;;;;;2.58;1.55;;;;;;;;;;6240242;23;20360;-89
2021/07/15 06:37:54;;;;;;;2.83;1.50;;;;;;;;;;6239130;23;20380;-88
2021/07/15 06:40:23;;;;;;;3.40;1.65;;;;;;;;;;6240270;23;20426;-89
2021/07/15 06:42:50;;;;;;;3.65;1.60;;;;;;;;;;6239602;23;20360;-89
2021/07/15 06:45:17;;;;;;;4.15;1.48;;;;;;;;;;6240157;23;20684;-88
2021/07/15 06:47:44;;;;;;;5.10;1.40;;;;;;;;;;6239257;23;20375;-89
2021/07/15 06:50:15;;;;;;;4.65;1.52;;;;;;;;;;6239328;23;20372;-89
2021/07/15 06:52:42;;;;;;;3.42;1.50;;;;;;;;;;6239299;23;20463;-88
2021/07/15 06:55:10;;;;;;;2.30;1.40;;;;;;;;;;6239290;23;20364;-89
2021/07/15 06:57:37;;;;;;;2.25;1.50;;;;;;;;;;6238996;23;20430;-88
2021/07/15 07:00:08;;;;;;;3.00;1.52;;;;;;;;;;6238935;23;20418;-88
2021/07/15 07:02:38;;;;;;;4.82;1.38;;;;;;;;;;6239202;23;20368;-89
2021/07/15 07:05:06;;;;;;;4.88;1.30;;;;;;;;;;6239761;23;20364;-88
2021/07/15 07:07:34;;;;;;;4.05;1.40;;;;;;;;;;6239581;23;20357;-88
2021/07/15 07:10:01;;;;;;;3.20;1.58;;;;;;;;;;6238902;23;20395;-89
2021/07/15 07:12:28;;;;;;;2.65;1.33;;;;;;;;;;6239267;23;20422;-88
2021/07/15 07:14:55;;;;;;;3.25;1.50;;;;;;;;;;6238825;23;20744;-89
2021/07/15 07:17:21;;;;;;;4.35;1.60;;;;;;;;;;6239760;23;20372;-89
2021/07/15 07:19:48;;;;;;;5.47;1.90;;;;;;;;;;6238995;23;20372;-89
2021/07/15 07:22:16;;;;;;;4.20;1.85;;;;;;;;;;6239597;23;20863;-89
2021/07/15 07:24:45;;;;;;;4.93;2.50;;;;;;;;;;6239081;23;20368;-89
2021/07/15 07:27:12;;;;;;;5.90;2.33;;;;;;;;;;6239460;23;20454;-88
2021/07/15 07:29:39;;;;;;;4.45;2.50;;;;;;;;;;6239457;23;20376;-89
2021/07/15 07:32:06;;;;;;;4.32;2.38;;;;;;;;;;6241240;23;20368;-89
2021/07/15 07:34:33;;;;;;;6.87;2.90;;;;;;;;;;6241367;23;21061;-89
2021/07/15 07:37:00;;;;;;;3.97;2.80;;;;;;;;;;6240879;23;20821;-89
2021/07/15 07:39:27;;;;;;;6.18;3.35;;;;;;;;;;6241117;23;20372;-88
2021/07/15 07:41:55;;;;;;;5.18;3.10;;;;;;;;;;6241285;23;20920;-88
2021/07/15 07:44:22;;;;;;;4.55;2.97;;;;;;;;;;6241263;23;20437;-89
2021/07/15 07:46:49;;;;;;;3.72;2.95;;;;;;;;;;6240992;23;20372;-90
2021/07/15 07:49:16;;;;;;;5.78;3.40;;;;;;;;;;6241012;23;20364;-90
2021/07/15 07:51:43;;;;;;;5.78;3.60;;;;;;;;;;6214058;23;20372;-90
2021/07/15 07:54:11;;;;;;;5.85;3.30;;;;;;;;;;6241491;23;20906;-89
2021/07/15 07:56:38;;;;;;;4.80;2.90;;;;;;;;;;6241101;23;20375;-89
2021/07/15 07:59:06;;;;;;;4.13;3.10;;;;;;;;;;6240697;23;20695;-89
2021/07/15 08:01:35;;;;;;;5.05;3.30;;;;;;;;;;6241118;23;20375;-89
2021/07/15 08:04:03;;;;;;;4.70;2.90;;;;;;;;;;6241122;23;20379;-89
2021/07/15 08:06:34;;;;;;;7.03;3.60;;;;;;;;;;6241592;23;20670;-89
2021/07/15 08:09:03;;;;;;;4.95;3.28;;;;;;;;;;6240569;23;20376;-89
2021/07/15 08:11:30;;;;;;;5.57;3.33;;;;;;;;;;6240655;23;20380;-89
2021/07/15 08:13:57;;;;;;;6.13;3.63;;;;;;;;;;6240643;23;20429;-90
2021/07/15 08:16:25;;;;;;;6.40;3.90;;;;;;;;;;6241009;23;20391;-90
2021/07/15 08:18:52;;;;;;;8.05;4.05;;;;;;;;;;6240419;23;20390;-89
2021/07/15 08:21:20;;;;;;;8.15;4.30;;;;;;;;;;6241132;23;20379;-90
2021/07/15 08:23:48;;;;;;;8.32;4.50;;;;;;;;;;6240339;23;20368;-91
2021/07/15 08:26:15;;;;;;;6.18;4.07;;;;;;;;;;6240623;23;20371;-90
2021/07/15 08:28:42;;;;;;;5.57;4.30;;;;;;;;;;6240733;23;20363;-90
2021/07/15 08:31:09;;;;;;;8.77;4.50;;;;;;;;;;6241272;23;20379;-92
2021/07/15 08:33:38;;;;;;;8.52;4.10;;;;;;;;;;6241086;23;20690;-92
2021/07/15 08:36:05;;;;;;;5.18;3.75;;;;;;;;;;6240912;23;20368;-91
2021/07/15 08:38:32;;;;;;;6.30;3.75;;;;;;;;;;6240675;23;20384;-91
2021/07/15 08:40:59;;;;;;;6.65;3.90;;;;;;;;;;6240693;23;20372;-91
2021/07/15 08:43:26;;;;;;;7.47;3.58;;;;;;;;;;6240915;23;20907;-90
2021/07/15 08:45:53;;;;;;;7.72;3.50;;;;;;;;;;6240435;23;20376;-90
2021/07/15 08:48:21;;;;;;;4.63;3.67;;;;;;;;;;6241116;23;20678;-90
2021/07/15 08:50:51;;;;;;;7.77;3.80;;;;;;;;;;6240335;23;20403;-90
2021/07/15 09:00:33;;;;;;;4.50;2.60;;;;;;;;;;6240660;23;20843;-92
2021/07/15 09:03:00;;;;;;;5.57;2.85;;;;;;;;;;6238319;23;20368;-81
2021/07/15 09:05:27;;;;;;;3.72;2.53;;;;;;;;;;6238849;23;20360;-82
2021/07/15 09:07:55;;;;;;;3.35;1.90;;;;;;;;;;6238489;23;20852;-81
2021/07/15 09:10:22;;;;;;;5.07;2.30;;;;;;;;;;6238925;23;20368;-81
2021/07/15 09:12:49;;;;;;;4.07;1.77;;;;;;;;;;6238017;23;20365;-81
2021/07/15 09:15:16;;;;;;;3.92;1.75;;;;;;;;;;6238561;23;20364;-80
2021/07/15 09:17:43;;;;;;;5.22;2.05;;;;;;;;;;6238449;23;20368;-81
2021/07/15 09:20:17;;;;;;;2.47;1.73;;;;;;;;;;6238902;23;20439;-82
2021/07/15 09:23:00;;;;;;;3.67;1.55;;;;;;;;;;6238696;23;20422;-81
2021/07/15 09:25:50;;;;;;;3.17;1.50;;;;;;;;;;6238395;23;20734;-81
2021/07/15 09:28:25;;;;;;;2.38;1.20;;;;;;;;;;6240279;23;20399;-90
2021/07/15 09:30:52;;;;;;;2.40;1.40;;;;;;;;;;6240174;23;20837;-91
2021/07/15 09:33:19;;;;;;;2.90;1.50;;;;;;;;;;6240791;23;20853;-91
2021/07/15 09:35:47;;;;;;;4.88;1.60;;;;;;;;;;6240266;23;20368;-91
2021/07/15 09:38:18;;;;;;;2.27;1.20;;;;;;;;;;6240206;23;20387;-91
2021/07/15 09:40:46;;;;;;;5.07;1.42;;;;;;;;;;6240850;23;20376;-90
2021/07/15 09:43:18;;;;;;;2.70;1.50;;;;;;;;;;6240324;23;20368;-91
2021/07/15 10:06:18;;;;;;;2.55;1.45;;;;;;;;;;6251731;22;20394;-89
2021/07/15 10:08:47;;;;;;;3.15;1.48;;;;;;;;;;6239726;23;20376;-90
2021/07/15 10:11:17;;;;;;;39.97;4.50;;;;;;;;;;6240251;23;20364;-92
2021/07/15 10:13:46;;;;;;;4.80;1.90;;;;;;;;;;6240125;23;20368;-91
2021/07/15 10:16:13;;;;;;;4.18;1.73;;;;;;;;;;6240029;23;20372;-91
2021/07/15 10:18:42;;;;;;;2.42;1.70;;;;;;;;;;6240177;23;20384;-92
2021/07/15 10:21:11;;;;;;;4.45;1.90;;;;;;;;;;6240421;23;20383;-92
2021/07/15 10:23:41;;;;;;;5.75;1.65;;;;;;;;;;6240132;23;20399;-91
2021/07/15 10:26:10;;;;;;;4.03;1.50;;;;;;;;;;6240195;23;20395;-90
2021/07/15 10:28:38;;;;;;;3.85;1.55;;;;;;;;;;6239980;23;20379;-90
2021/07/15 10:31:07;;;;;;;2.72;1.50;;;;;;;;;;6239925;23;20372;-91
2021/07/15 10:33:35;;;;;;;3.88;1.63;;;;;;;;;;6240597;23;20371;-90
2021/07/15 10:36:04;;;;;;;2.05;1.50;;;;;;;;;;6239936;23;20364;-91
2021/07/15 10:38:36;;;;;;;3.38;1.60;;;;;;;;;;6239627;23;20426;-90
2021/07/15 10:41:04;;;;;;;2.40;1.40;;;;;;;;;;6239567;23;20375;-90
2021/07/15 10:43:32;;;;;;;3.40;1.50;;;;;;;;;;6239983;23;20364;-91
2021/07/15 10:46:01;;;;;;;4.20;1.50;;;;;;;;;;6239792;23;20372;-91
2021/07/15 10:48:30;;;;;;;3.13;1.80;;;;;;;;;;6240312;23;20411;-90
2021/07/15 10:50:56;;;;;;;4.63;1.70;;;;;;;;;;6239982;23;20368;-91
2021/07/15 10:53:24;;;;;;;3.60;1.70;;;;;;;;;;6240120;23;20368;-91
2021/07/15 10:55:53;;;;;;;4.60;1.92;;;;;;;;;;6239417;23;20372;-91
2021/07/15 10:58:49;;;;;;;3.58;1.67;;;;;;;;;;6239514;23;20372;-91
2021/07/15 11:01:40;;;;;;;2.97;1.80;;;;;;;;;;6240331;23;20378;-91
2021/07/15 11:04:10;;;;;;;5.03;1.73;;;;;;;;;;6239911;23;20752;-91
2021/07/15 11:06:38;;;;;;;3.78;1.80;;;;;;;;;;6242157;23;20379;-91
2021/07/15 11:09:10;;;;;;;3.70;1.70;;;;;;;;;;6242566;23;20867;-91
2021/07/15 11:11:40;;;;;;;3.33;1.75;;;;;;;;;;6255716;22;20372;-91
2021/07/15 11:14:33;;;;;;;4.40;1.53;;;;;;;;;;6267386;22;20356;-90
2021/07/15 11:17:00;;;;;;;2.17;1.50;;;;;;;;;;6267385;22;20355;-91
2021/07/15 11:19:56;;;;;;;4.90;1.80;;;;;;;;;;6244181;23;20380;-91
2021/07/15 11:22:43;;;;;;;5.28;1.90;;;;;;;;;;6249677;22;20348;-91
2021/07/15 11:25:12;;;;;;;6.40;1.60;;;;;;;;;;6267623;22;20391;-91
2021/07/15 11:27:44;;;;;;;2.15;1.60;;;;;;;;;;6267621;22;20372;-91
2021/07/15 11:30:15;;;;;;;4.43;1.60;;;;;;;;;;6248824;22;20376;-91
2021/07/15 11:32:42;;;;;;;4.25;1.80;;;;;;;;;;6239539;23;20372;-91
2021/07/15 11:35:24;;;;;;;4.47;1.63;;;;;;;;;;6240173;23;20701;-91
2021/07/15 11:38:12;;;;;;;3.58;1.52;;;;;;;;;;6239388;23;20383;-90
2021/07/15 11:40:47;;;;;;;3.90;1.60;;;;;;;;;;6239928;23;20368;-90
2021/07/15 11:43:30;;;;;;;3.70;1.48;;;;;;;;;;6239768;23;20773;-91
2021/07/15 11:46:13;;;;;;;5.13;1.60;;;;;;;;;;6239423;23;20372;-90
2021/07/15 11:49:04;;;;;;;5.25;1.80;;;;;;;;;;6239822;23;20399;-90
2021/07/15 11:51:43;;;;;;;4.05;1.52;;;;;;;;;;6239819;23;20371;-91
2021/07/15 11:54:25;;;;;;;4.53;1.67;;;;;;;;;;6239712;23;20598;-91
2021/07/15 11:56:56;;;;;;;3.53;1.67;;;;;;;;;;6239592;23;20675;-90
2021/07/15 11:59:45;;;;;;;2.95;1.58;;;;;;;;;;6239899;23;20388;-91
2021/07/15 12:02:22;;;;;;;5.13;1.60;;;;;;;;;;6231132;23;20370;-90
2021/07/15 12:05:05;;;;;;;4.63;1.50;;;;;;;;;;6239647;23;20374;-90
2021/07/15 12:07:32;;;;;;;3.97;1.65;;;;;;;;;;6238910;23;20372;-91
2021/07/15 12:10:00;;;;;;;4.18;1.67;;;;;;;;;;6239322;23;20368;-90
2021/07/15 12:12:27;;;;;;;2.88;1.35;;;;;;;;;;6240018;23;20379;-91
2021/07/15 12:14:54;;;;;;;3.35;1.60;;;;;;;;;;6238970;23;20373;-91
2021/07/15 12:17:23;;;;;;;6.30;1.80;;;;;;;;;;6241042;23;20372;-90
2021/07/15 12:19:54;;;;;;;6.07;1.63;;;;;;;;;;6241140;23;20380;-91
2021/07/15 12:22:23;;;;;;;3.65;1.63;;;;;;;;;;6242220;23;20709;-91
2021/07/15 12:25:10;;;;;;;4.38;1.73;;;;;;;;;;6240049;23;21886;-91
2021/07/15 12:27:42;;;;;;;3.50;1.70;;;;;;;;;;6241411;23;20459;-90
2021/07/15 12:30:11;;;;;;;3.67;1.60;;;;;;;;;;6241335;23;20693;-91
2021/07/15 12:32:40;;;;;;;2.65;1.48;;;;;;;;;;6241437;23;20384;-90
2021/07/15 12:35:13;;;;;;;3.78;1.60;;;;;;;;;;6241378;23;20451;-90
2021/07/15 12:37:40;;;;;;;4.60;1.60;;;;;;;;;;6241185;23;20372;-90
2021/07/15 12:40:08;;;;;;;3.70;1.70;;;;;;;;;;6241062;23;20403;-90
2021/07/15 12:42:36;;;;;;;4.13;1.60;;;;;;;;;;6241635;23;20372;-91
2021/07/15 12:45:15;;;;;;;2.92;1.40;;;;;;;;;;6241256;23;20372;-91
2021/07/15 12:47:56;;;;;;;4.30;1.70;;;;;;;;;;6241124;23;20663;-91
2021/07/15 12:50:24;;;;;;;3.30;1.55;;;;;;;;;;6241403;23;20403;-90
2021/07/15 12:53:06;;;;;;;3.88;1.45;;;;;;;;;;6240491;23;20413;-91
2021/07/15 12:55:33;;;;;;;4.18;1.73;;;;;;;;;;6241399;23;20697;-90
2021/07/15 12:58:00;;;;;;;4.45;1.63;;;;;;;;;;6240938;23;20379;-91
2021/07/15 13:00:32;;;;;;;2.60;1.50;;;;;;;;;;6240857;23;20387;-90
2021/07/15 13:03:01;;;;;;;3.35;1.50;;;;;;;;;;6240286;23;20376;-90
2021/07/15 13:05:28;;;;;;;4.00;1.60;;;;;;;;;;6241416;23;20364;-90
2021/07/15 13:07:55;;;;;;;2.80;1.40;;;;;;;;;;6240737;23;20507;-91
2021/07/15 13:10:34;;;;;;;3.17;1.30;;;;;;;;;;6240906;23;20486;-90
2021/07/15 13:15:51;;;;;;;3.07;1.50;;;;;;;;;;6240801;23;20366;-91
2021/07/15 13:18:24;;;;;;;2.42;1.42;;;;;;;;;;6240848;23;20411;-90
2021/07/15 13:20:52;;;;;;;4.37;1.70;;;;;;;;;;6240068;23;20380;-91
2021/07/15 13:23:19;;;;;;;3.15;1.60;;;;;;;;;;6240774;23;20427;-90
2021/07/15 13:25:49;;;;;;;5.30;1.60;;;;;;;;;;6240677;23;20414;-90
2021/07/15 13:28:18;;;;;;;3.78;1.70;;;;;;;;;;6240271;23;20419;-90
2021/07/15 13:30:46;;;;;;;3.30;1.70;;;;;;;;;;6241166;23;20371;-91
2021/07/15 13:33:14;;;;;;;4.88;1.40;;;;;;;;;;6240952;23;20761;-91
2021/07/15 13:35:44;;;;;;;4.53;1.33;;;;;;;;;;6240494;23;20377;-91
2021/07/15 13:38:12;;;;;;;4.43;1.95;;;;;;;;;;6240886;23;20598;-91
2021/07/15 13:40:41;;;;;;;3.28;1.45;;;;;;;;;;6240712;23;20464;-91
2021/07/15 13:43:09;;;;;;;2.25;1.20;;;;;;;;;;6240921;23;20372;-91
2021/07/15 13:45:39;;;;;;;3.38;1.40;;;;;;;;;;6240473;23;20372;-90
2021/07/15 13:48:15;;;;;;;2.50;1.45;;;;;;;;;;6240718;23;20368;-90
2021/07/15 13:50:44;;;;;;;4.30;1.52;;;;;;;;;;6240192;23;20368;-91
2021/07/15 13:53:14;;;;;;;4.10;1.58;;;;;;;;;;6240255;23;20386;-91
2021/07/15 13:55:43;;;;;;;3.65;1.55;;;;;;;;;;6240651;23;20368;-90
2021/07/15 13:58:15;;;;;;;4.07;1.70;;;;;;;;;;6240221;23;20376;-91
2021/07/15 14:00:48;;;;;;;2.42;1.40;;;;;;;;;;6240292;23;20852;-90
2021/07/15 14:03:17;;;;;;;3.28;1.50;;;;;;;;;;6240843;23;20368;-91
2021/07/15 14:05:48;;;;;;;3.70;1.55;;;;;;;;;;6240034;23;20434;-91
2021/07/15 14:08:16;;;;;;;2.33;1.38;;;;;;;;;;6240465;23;20372;-91
2021/07/15 14:10:44;;;;;;;2.78;1.40;;;;;;;;;;6240229;23;20372;-91
2021/07/15 14:13:11;;;;;;;4.25;1.60;;;;;;;;;;6240236;23;20375;-92
2021/07/15 14:15:40;;;;;;;2.75;1.52;;;;;;;;;;6240121;23;20378;-91
2021/07/15 14:18:09;;;;;;;4.53;1.52;;;;;;;;;;6239861;23;20391;-90
2021/07/15 14:20:38;;;;;;;3.13;1.40;;;;;;;;;;6239830;23;20380;-91
2021/07/15 14:23:08;;;;;;;2.40;1.38;;;;;;;;;;6240784;23;20382;-91
2021/07/15 14:25:37;;;;;;;3.33;1.25;;;;;;;;;;6239971;23;20729;-90
2021/07/15 14:28:06;;;;;;;3.85;1.60;;;;;;;;;;6239294;23;20372;-91
2021/07/15 14:30:34;;;;;;;3.45;1.55;;;;;;;;;;6239790;23;20364;-91
2021/07/15 14:33:01;;;;;;;4.57;2.05;;;;;;;;;;6239753;23;20398;-91
2021/07/15 14:35:31;;;;;;;2.40;1.60;;;;;;;;;;6239799;23;20423;-91
2021/07/15 14:37:58;;;;;;;4.40;1.70;;;;;;;;;;6239270;23;20379;-91
2021/07/15 14:40:27;;;;;;;4.57;1.63;;;;;;;;;;6239526;23;20876;-91
2021/07/15 14:42:54;;;;;;;4.07;1.52;;;;;;;;;;6239593;23;20372;-91
2021/07/15 14:45:21;;;;;;;3.50;1.77;;;;;;;;;;6239757;23;20368;-89
2021/07/15 14:47:48;;;;;;;3.23;1.60;;;;;;;;;;6239879;23;20753;-91
2021/07/15 14:50:18;;;;;;;4.57;1.60;;;;;;;;;;6239751;23;20485;-91
2021/07/15 14:52:45;;;;;;;3.92;1.50;;;;;;;;;;6239035;23;20392;-91
2021/07/15 14:55:14;;;;;;;2.70;1.50;;;;;;;;;;6240028;23;20372;-91
2021/07/15 14:57:42;;;;;;;3.28;1.70;;;;;;;;;;6239808;23;21204;-90
2021/07/15 15:00:11;;;;;;;4.57;1.60;;;;;;;;;;6239860;23;20849;-90
2021/07/15 15:02:38;;;;;;;2.25;1.55;;;;;;;;;;6239725;23;20744;-90
2021/07/15 15:05:06;;;;;;;2.65;1.70;;;;;;;;;;6239152;23;20375;-91
2021/07/15 15:07:33;;;;;;;4.50;1.70;;;;;;;;;;6239692;23;20375;-91
2021/07/15 15:10:00;;;;;;;6.18;1.92;;;;;;;;;;6239208;23;20368;-91
2021/07/15 15:12:27;;;;;;;5.10;1.73;;;;;;;;;;6239682;23;20878;-91
2021/07/15 15:14:55;;;;;;;5.47;1.95;;;;;;;;;;6239208;23;20690;-91
2021/07/15 15:17:22;;;;;;;4.70;1.70;;;;;;;;;;6239785;23;20371;-91
2021/07/15 15:19:49;;;;;;;3.72;1.80;;;;;;;;;;6238981;23;20398;-90
2021/07/15 15:22:17;;;;;;;4.13;1.90;;;;;;;;;;6239675;23;20368;-91
2021/07/15 15:24:44;;;;;;;3.57;1.60;;;;;;;;;;6240057;23;20700;-91
2021/07/15 15:27:11;;;;;;;3.80;2.00;;;;;;;;;;6239644;23;20376;-91
2021/07/15 15:29:38;;;;;;;4.30;1.93;;;;;;;;;;6239647;23;20861;-91
2021/07/15 15:32:07;;;;;;;3.73;1.97;;;;;;;;;;6239474;23;20442;-91
2021/07/15 15:34:34;;;;;;;4.55;1.90;;;;;;;;;;6239137;23;20375;-91
2021/07/15 15:37:01;;;;;;;2.58;1.70;;;;;;;;;;6238932;23;20382;-90
2021/07/15 15:39:28;;;;;;;3.17;1.63;;;;;;;;;;6239779;23;20376;-91
2021/07/15 15:41:55;;;;;;;4.00;2.10;;;;;;;;;;6239551;23;20410;-91
2021/07/15 15:44:22;;;;;;;5.07;2.05;;;;;;;;;;6240285;23;20372;-91
2021/07/15 15:47:10;;;;;;;2.92;2.00;;;;;;;;;;6241106;23;20368;-91
2021/07/15 15:49:39;;;;;;;5.38;2.00;;;;;;;;;;6240307;23;20753;-91
2021/07/15 15:52:07;;;;;;;3.78;2.00;;;;;;;;;;6247839;23;20407;-91
2021/07/15 15:54:35;;;;;;;3.50;1.85;;;;;;;;;;6267449;23;20354;-91
2021/07/15 15:57:02;;;;;;;4.57;2.20;;;;;;;;;;6267799;22;20372;-91
2021/07/15 15:59:29;;;;;;;4.37;2.10;;;;;;;;;;6254835;23;20880;-91
2021/07/15 16:01:56;;;;;;;4.00;2.10;;;;;;;;;;6241545;23;20438;-92
2021/07/15 16:04:26;;;;;;;5.50;2.40;;;;;;;;;;6258362;22;20382;-91
2021/07/15 16:06:54;;;;;;;5.95;2.10;;;;;;;;;;6257809;23;20376;-91
2021/07/15 16:09:21;;;;;;;4.80;2.50;;;;;;;;;;6261239;23;20368;-91
2021/07/15 16:11:48;;;;;;;3.75;2.45;;;;;;;;;;6243531;23;20368;-92
2021/07/15 16:14:15;;;;;;;4.22;2.33;;;;;;;;;;6242146;23;20679;-91
2021/07/15 16:16:42;;;;;;;4.78;2.58;;;;;;;;;;6242996;23;20380;-91
2021/07/15 16:19:11;;;;;;;5.50;2.42;;;;;;;;;;6242197;23;20364;-92
2021/07/15 16:21:42;;;;;;;3.88;2.30;;;;;;;;;;6241793;23;20794;-92
2021/07/15 16:24:09;;;;;;;5.95;2.40;;;;;;;;;;6241690;23;20475;-92
2021/07/15 16:26:36;;;;;;;4.55;2.35;;;;;;;;;;6242049;23;20376;-92
2021/07/15 16:29:04;;;;;;;4.47;2.30;;;;;;;;;;6241664;23;20380;-92
2021/07/15 16:31:31;;;;;;;4.05;2.10;;;;;;;;;;6241947;23;20860;-91
2021/07/15 16:34:00;;;;;;;3.73;2.00;;;;;;;;;;6241603;23;20372;-91
2021/07/15 16:36:28;;;;;;;4.43;2.22;;;;;;;;;;6241773;23;20372;-91
2021/07/15 16:38:56;;;;;;;4.50;2.13;;;;;;;;;;6240987;23;20368;-91
2021/07/15 16:41:23;;;;;;;5.70;2.25;;;;;;;;;;6241503;23;20384;-91
2021/07/15 16:43:50;;;;;;;3.17;2.05;;;;;;;;;;6241527;23;20368;-91
2021/07/15 16:46:19;;;;;;;4.32;2.45;;;;;;;;;;6241614;23;20368;-91
2021/07/15 16:48:45;;;;;;;3.42;2.30;;;;;;;;;;6241950;23;20376;-91
2021/07/15 16:51:13;;;;;;;3.97;2.30;;;;;;;;;;6241321;23;20403;-92
2021/07/15 16:53:39;;;;;;;7.53;2.28;;;;;;;;;;6240951;23;20910;-90
2021/07/15 16:56:08;;;;;;;3.88;2.22;;;;;;;;;;6241442;23;20379;-91
2021/07/15 16:58:36;;;;;;;4.22;2.10;;;;;;;;;;6241659;23;20364;-92
2021/07/15 17:01:04;;;;;;;5.95;2.17;;;;;;;;;;6241332;23;20608;-91
2021/07/15 17:03:31;;;;;;;4.07;2.20;;;;;;;;;;6240610;23;20768;-91
2021/07/15 17:05:58;;;;;;;5.38;2.40;;;;;;;;;;6241010;23;20372;-91
2021/07/15 17:08:25;;;;;;;3.80;2.17;;;;;;;;;;6241399;23;20466;-92
2021/07/15 17:10:52;;;;;;;3.92;2.10;;;;;;;;;;6240744;23;20383;-92
2021/07/15 17:13:20;;;;;;;3.97;2.10;;;;;;;;;;6241536;23;20372;-92
2021/07/15 17:15:47;;;;;;;5.63;2.30;;;;;;;;;;6241230;23;20379;-92
2021/07/15 17:18:14;;;;;;;3.30;2.10;;;;;;;;;;6241289;23;20390;-91